Blankenberge, Belgium
Current Conditions -  °F | °C
As of 2:20 AM on Saturday 25 Oct 2014 (Local Time) from EBOS Reporting Station
Broken Clouds Broken Clouds  
Wind Chill: 13°   Ceiling: 4200
Heat Index: 13°   Visibility: 6mi
Dew Point: 11°   Wind: 10mph
Humidity: 88%   Direction: 210°SSW
Pressure: 30"   Gusts: NA
Location:  51.31°N, 3.13°E
Report Text: EBOS 250020Z 21009KT 9000 SCT005 BKN042 13/11 Q1016 TEMPO 4000 -DZ BKN004
Loading
Personal Weather Stations






























Interactive Weather Map
Tropical Storm Tracking
New forecast layout! Learn more

10-Day Weather Forecast

Advertisements
Track Severe Weather on mobile